sensor_id;sensor_type;location;lat;lon;timestamp;P1;durP1;ratioP1;P2;durP2;ratioP2
56399;SDS011;42298;53.638;9.876;2023-04-02T00:01:47;8.03;;;2.17;;
56399;SDS011;42298;53.638;9.876;2023-04-02T00:04:21;8.83;;;2.33;;
56399;SDS011;42298;53.638;9.876;2023-04-02T00:06:48;5.70;;;2.13;;
56399;SDS011;42298;53.638;9.876;2023-04-02T00:09:36;4.80;;;1.87;;
56399;SDS011;42298;53.638;9.876;2023-04-02T00:12:16;11.17;;;2.23;;
56399;SDS011;42298;53.638;9.876;2023-04-02T00:14:47;7.53;;;2.43;;
56399;SDS011;42298;53.638;9.876;2023-04-02T00:17:15;7.10;;;2.40;;
56399;SDS011;42298;53.638;9.876;2023-04-02T00:22:35;6.93;;;2.37;;
56399;SDS011;42298;53.638;9.876;2023-04-02T00:25:10;8.90;;;2.50;;
56399;SDS011;42298;53.638;9.876;2023-04-02T00:27:37;5.27;;;1.70;;
56399;SDS011;42298;53.638;9.876;2023-04-02T00:30:03;5.57;;;2.07;;
56399;SDS011;42298;53.638;9.876;2023-04-02T00:32:30;7.50;;;2.13;;
56399;SDS011;42298;53.638;9.876;2023-04-02T00:34:58;2.33;;;1.77;;
56399;SDS011;42298;53.638;9.876;2023-04-02T00:37:26;10.37;;;2.20;;
56399;SDS011;42298;53.638;9.876;2023-04-02T00:39:55;5.10;;;2.07;;
56399;SDS011;42298;53.638;9.876;2023-04-02T00:42:26;5.87;;;1.90;;
56399;SDS011;42298;53.638;9.876;2023-04-02T00:44:55;9.00;;;2.13;;
56399;SDS011;42298;53.638;9.876;2023-04-02T00:47:26;9.30;;;2.97;;
56399;SDS011;42298;53.638;9.876;2023-04-02T00:49:58;3.47;;;2.00;;
56399;SDS011;42298;53.638;9.876;2023-04-02T00:52:31;7.20;;;2.13;;
56399;SDS011;42298;53.638;9.876;2023-04-02T00:57:42;5.23;;;1.97;;
56399;SDS011;42298;53.638;9.876;2023-04-02T01:00:32;6.77;;;2.17;;
56399;SDS011;42298;53.638;9.876;2023-04-02T01:05:42;7.17;;;2.13;;
56399;SDS011;42298;53.638;9.876;2023-04-02T01:24:42;5.73;;;2.33;;
56399;SDS011;42298;53.638;9.876;2023-04-02T01:27:22;4.40;;;1.90;;
56399;SDS011;42298;53.638;9.876;2023-04-02T01:29:56;10.27;;;2.20;;
56399;SDS011;42298;53.638;9.876;2023-04-02T01:32:25;10.07;;;2.10;;
56399;SDS011;42298;53.638;9.876;2023-04-02T01:34:53;9.57;;;2.30;;
56399;SDS011;42298;53.638;9.876;2023-04-02T01:45:19;6.87;;;2.00;;
56399;SDS011;42298;53.638;9.876;2023-04-02T01:47:46;7.47;;;1.90;;
56399;SDS011;42298;53.638;9.876;2023-04-02T01:52:44;7.60;;;2.40;;
56399;SDS011;42298;53.638;9.876;2023-04-02T01:55:13;7.07;;;2.13;;
56399;SDS011;42298;53.638;9.876;2023-04-02T01:57:42;6.67;;;2.10;;
56399;SDS011;42298;53.638;9.876;2023-04-02T02:00:14;9.67;;;2.77;;
56399;SDS011;42298;53.638;9.876;2023-04-02T02:02:41;6.20;;;2.17;;
56399;SDS011;42298;53.638;9.876;2023-04-02T02:05:12;5.67;;;2.33;;
56399;SDS011;42298;53.638;9.876;2023-04-02T02:07:40;6.37;;;2.20;;
56399;SDS011;42298;53.638;9.876;2023-04-02T02:10:07;5.23;;;2.00;;
56399;SDS011;42298;53.638;9.876;2023-04-02T02:12:42;4.23;;;1.90;;
56399;SDS011;42298;53.638;9.876;2023-04-02T02:15:16;6.47;;;2.17;;
56399;SDS011;42298;53.638;9.876;2023-04-02T02:17:47;6.57;;;1.77;;
56399;SDS011;42298;53.638;9.876;2023-04-02T02:20:13;6.33;;;2.00;;
56399;SDS011;42298;53.638;9.876;2023-04-02T02:22:41;6.60;;;2.30;;
56399;SDS011;42298;53.638;9.876;2023-04-02T02:25:10;7.17;;;2.10;;
56399;SDS011;42298;53.638;9.876;2023-04-02T02:27:52;7.40;;;2.20;;
56399;SDS011;42298;53.638;9.876;2023-04-02T02:30:40;8.40;;;2.07;;
56399;SDS011;42298;53.638;9.876;2023-04-02T02:35:58;7.03;;;2.10;;
56399;SDS011;42298;53.638;9.876;2023-04-02T02:41:06;8.07;;;2.40;;
56399;SDS011;42298;53.638;9.876;2023-04-02T02:43:40;7.40;;;2.20;;
56399;SDS011;42298;53.638;9.876;2023-04-02T02:46:22;12.57;;;2.37;;
56399;SDS011;42298;53.638;9.876;2023-04-02T02:48:51;5.30;;;2.17;;
56399;SDS011;42298;53.638;9.876;2023-04-02T02:51:24;9.13;;;2.93;;
56399;SDS011;42298;53.638;9.876;2023-04-02T02:53:54;7.53;;;2.73;;
56399;SDS011;42298;53.638;9.876;2023-04-02T02:56:24;5.17;;;1.63;;
56399;SDS011;42298;53.638;9.876;2023-04-02T02:58:52;7.63;;;2.20;;
56399;SDS011;42298;53.638;9.876;2023-04-02T03:01:18;6.97;;;2.10;;
56399;SDS011;42298;53.638;9.876;2023-04-02T03:03:44;5.90;;;2.03;;
56399;SDS011;42298;53.638;9.876;2023-04-02T03:06:13;5.47;;;2.00;;
56399;SDS011;42298;53.638;9.876;2023-04-02T03:14:07;2.50;;;1.70;;
56399;SDS011;42298;53.638;9.876;2023-04-02T03:16:48;4.93;;;1.90;;
56399;SDS011;42298;53.638;9.876;2023-04-02T03:19:26;6.70;;;2.87;;
56399;SDS011;42298;53.638;9.876;2023-04-02T03:22:00;7.57;;;2.23;;
56399;SDS011;42298;53.638;9.876;2023-04-02T03:24:35;5.70;;;2.00;;
56399;SDS011;42298;53.638;9.876;2023-04-02T03:27:12;5.17;;;2.10;;
56399;SDS011;42298;53.638;9.876;2023-04-02T03:29:43;7.60;;;2.20;;
56399;SDS011;42298;53.638;9.876;2023-04-02T03:32:26;4.37;;;2.10;;
56399;SDS011;42298;53.638;9.876;2023-04-02T03:34:58;3.20;;;1.83;;
56399;SDS011;42298;53.638;9.876;2023-04-02T03:40:07;4.57;;;2.10;;
56399;SDS011;42298;53.638;9.876;2023-04-02T03:42:44;8.50;;;2.30;;
56399;SDS011;42298;53.638;9.876;2023-04-02T03:50:57;6.47;;;2.20;;
56399;SDS011;42298;53.638;9.876;2023-04-02T03:53:29;3.37;;;1.83;;
56399;SDS011;42298;53.638;9.876;2023-04-02T03:55:56;5.40;;;2.03;;
56399;SDS011;42298;53.638;9.876;2023-04-02T03:58:41;4.80;;;2.03;;
56399;SDS011;42298;53.638;9.876;2023-04-02T04:04:15;7.60;;;2.17;;
56399;SDS011;42298;53.638;9.876;2023-04-02T04:06:42;4.50;;;2.00;;
56399;SDS011;42298;53.638;9.876;2023-04-02T04:09:21;6.27;;;1.80;;
56399;SDS011;42298;53.638;9.876;2023-04-02T04:11:51;6.27;;;2.77;;
56399;SDS011;42298;53.638;9.876;2023-04-02T04:14:28;7.97;;;2.53;;
56399;SDS011;42298;53.638;9.876;2023-04-02T04:17:01;7.50;;;2.30;;
56399;SDS011;42298;53.638;9.876;2023-04-02T04:19:41;3.50;;;1.83;;
56399;SDS011;42298;53.638;9.876;2023-04-02T04:22:13;5.93;;;2.60;;
56399;SDS011;42298;53.638;9.876;2023-04-02T04:24:44;7.83;;;2.17;;
56399;SDS011;42298;53.638;9.876;2023-04-02T04:27:28;4.63;;;2.37;;
56399;SDS011;42298;53.638;9.876;2023-04-02T04:30:05;6.47;;;2.53;;
56399;SDS011;42298;53.638;9.876;2023-04-02T04:32:36;7.43;;;2.37;;
56399;SDS011;42298;53.638;9.876;2023-04-02T04:35:24;4.87;;;2.33;;
56399;SDS011;42298;53.638;9.876;2023-04-02T04:38:17;5.57;;;2.10;;
56399;SDS011;42298;53.638;9.876;2023-04-02T04:40:53;5.47;;;2.07;;
56399;SDS011;42298;53.638;9.876;2023-04-02T04:46:11;5.17;;;2.10;;
56399;SDS011;42298;53.638;9.876;2023-04-02T04:48:44;5.27;;;2.33;;
56399;SDS011;42298;53.638;9.876;2023-04-02T04:51:32;3.87;;;2.00;;
56399;SDS011;42298;53.638;9.876;2023-04-02T04:54:03;4.90;;;1.73;;
56399;SDS011;42298;53.638;9.876;2023-04-02T04:56:29;6.60;;;2.03;;
56399;SDS011;42298;53.638;9.876;2023-04-02T04:59:00;6.53;;;2.23;;
56399;SDS011;42298;53.638;9.876;2023-04-02T05:04:04;5.77;;;2.17;;
56399;SDS011;42298;53.638;9.876;2023-04-02T05:06:38;6.30;;;2.23;;
56399;SDS011;42298;53.638;9.876;2023-04-02T05:14:49;3.67;;;1.97;;
56399;SDS011;42298;53.638;9.876;2023-04-02T05:17:22;5.03;;;1.90;;
56399;SDS011;42298;53.638;9.876;2023-04-02T05:20:02;7.87;;;2.13;;
56399;SDS011;42298;53.638;9.876;2023-04-02T05:25:19;5.20;;;1.87;;
56399;SDS011;42298;53.638;9.876;2023-04-02T05:32:49;7.40;;;2.00;;
56399;SDS011;42298;53.638;9.876;2023-04-02T05:35:21;4.63;;;2.10;;
56399;SDS011;42298;53.638;9.876;2023-04-02T05:37:52;9.03;;;2.80;;
56399;SDS011;42298;53.638;9.876;2023-04-02T05:43:22;4.03;;;2.00;;
56399;SDS011;42298;53.638;9.876;2023-04-02T05:45:54;7.97;;;2.30;;
56399;SDS011;42298;53.638;9.876;2023-04-02T05:48:29;8.53;;;2.00;;
56399;SDS011;42298;53.638;9.876;2023-04-02T05:50:59;4.27;;;2.07;;
56399;SDS011;42298;53.638;9.876;2023-04-02T05:53:35;5.40;;;1.80;;
56399;SDS011;42298;53.638;9.876;2023-04-02T05:56:20;4.83;;;2.27;;
56399;SDS011;42298;53.638;9.876;2023-04-02T06:04:38;5.47;;;1.80;;
56399;SDS011;42298;53.638;9.876;2023-04-02T06:07:09;6.67;;;2.00;;
56399;SDS011;42298;53.638;9.876;2023-04-02T06:09:47;6.63;;;1.93;;
56399;SDS011;42298;53.638;9.876;2023-04-02T06:14:55;4.27;;;1.77;;
56399;SDS011;42298;53.638;9.876;2023-04-02T06:17:21;6.03;;;1.97;;
56399;SDS011;42298;53.638;9.876;2023-04-02T06:19:47;3.73;;;1.70;;
56399;SDS011;42298;53.638;9.876;2023-04-02T06:24:48;3.87;;;1.93;;
56399;SDS011;42298;53.638;9.876;2023-04-02T06:27:22;6.63;;;2.00;;
56399;SDS011;42298;53.638;9.876;2023-04-02T06:29:50;5.67;;;1.97;;
56399;SDS011;42298;53.638;9.876;2023-04-02T06:32:21;4.60;;;1.90;;
56399;SDS011;42298;53.638;9.876;2023-04-02T06:34:49;8.10;;;2.13;;
56399;SDS011;42298;53.638;9.876;2023-04-02T06:39:58;6.97;;;2.17;;
56399;SDS011;42298;53.638;9.876;2023-04-02T06:42:26;7.07;;;1.80;;
56399;SDS011;42298;53.638;9.876;2023-04-02T06:44:55;6.90;;;1.80;;
56399;SDS011;42298;53.638;9.876;2023-04-02T06:47:34;5.63;;;2.00;;
56399;SDS011;42298;53.638;9.876;2023-04-02T06:52:36;4.07;;;1.60;;
56399;SDS011;42298;53.638;9.876;2023-04-02T06:55:30;4.67;;;1.77;;
56399;SDS011;42298;53.638;9.876;2023-04-02T06:57:57;3.60;;;1.43;;
56399;SDS011;42298;53.638;9.876;2023-04-02T07:03:00;6.23;;;1.80;;
56399;SDS011;42298;53.638;9.876;2023-04-02T07:05:29;7.20;;;1.70;;
56399;SDS011;42298;53.638;9.876;2023-04-02T07:07:55;3.77;;;1.40;;
56399;SDS011;42298;53.638;9.876;2023-04-02T07:10:20;5.07;;;1.43;;
56399;SDS011;42298;53.638;9.876;2023-04-02T07:12:46;5.53;;;1.40;;
56399;SDS011;42298;53.638;9.876;2023-04-02T07:15:15;5.07;;;1.50;;
56399;SDS011;42298;53.638;9.876;2023-04-02T07:17:43;4.10;;;1.50;;
56399;SDS011;42298;53.638;9.876;2023-04-02T07:20:30;3.27;;;1.50;;
56399;SDS011;42298;53.638;9.876;2023-04-02T07:22:55;4.13;;;1.60;;
56399;SDS011;42298;53.638;9.876;2023-04-02T07:25:21;3.30;;;1.30;;
56399;SDS011;42298;53.638;9.876;2023-04-02T07:27:47;3.83;;;1.53;;
56399;SDS011;42298;53.638;9.876;2023-04-02T07:30:13;5.40;;;1.70;;
56399;SDS011;42298;53.638;9.876;2023-04-02T07:32:39;5.43;;;1.67;;
56399;SDS011;42298;53.638;9.876;2023-04-02T07:35:04;4.57;;;1.40;;
56399;SDS011;42298;53.638;9.876;2023-04-02T07:37:30;4.73;;;1.80;;
56399;SDS011;42298;53.638;9.876;2023-04-02T07:39:56;7.57;;;1.70;;
56399;SDS011;42298;53.638;9.876;2023-04-02T07:42:21;5.23;;;1.53;;
56399;SDS011;42298;53.638;9.876;2023-04-02T07:44:46;7.03;;;1.50;;
56399;SDS011;42298;53.638;9.876;2023-04-02T07:47:12;6.90;;;1.77;;
56399;SDS011;42298;53.638;9.876;2023-04-02T07:49:37;3.70;;;1.40;;
56399;SDS011;42298;53.638;9.876;2023-04-02T07:52:03;6.87;;;1.70;;
56399;SDS011;42298;53.638;9.876;2023-04-02T07:54:28;6.87;;;1.90;;
56399;SDS011;42298;53.638;9.876;2023-04-02T07:56:54;4.50;;;1.60;;
56399;SDS011;42298;53.638;9.876;2023-04-02T07:59:20;4.10;;;1.43;;
56399;SDS011;42298;53.638;9.876;2023-04-02T08:01:46;5.97;;;1.60;;
56399;SDS011;42298;53.638;9.876;2023-04-02T08:04:15;4.60;;;1.80;;
56399;SDS011;42298;53.638;9.876;2023-04-02T08:06:42;5.93;;;2.17;;
56399;SDS011;42298;53.638;9.876;2023-04-02T08:09:08;4.10;;;1.60;;
56399;SDS011;42298;53.638;9.876;2023-04-02T08:11:33;2.63;;;1.30;;
56399;SDS011;42298;53.638;9.876;2023-04-02T08:13:58;5.43;;;1.40;;
56399;SDS011;42298;53.638;9.876;2023-04-02T08:16:24;4.67;;;1.70;;
56399;SDS011;42298;53.638;9.876;2023-04-02T08:18:49;5.43;;;1.70;;
56399;SDS011;42298;53.638;9.876;2023-04-02T08:21:15;5.83;;;1.90;;
56399;SDS011;42298;53.638;9.876;2023-04-02T08:23:40;7.47;;;1.57;;
56399;SDS011;42298;53.638;9.876;2023-04-02T08:26:06;3.80;;;1.67;;
56399;SDS011;42298;53.638;9.876;2023-04-02T08:28:32;5.47;;;1.53;;
56399;SDS011;42298;53.638;9.876;2023-04-02T08:30:58;4.07;;;1.57;;
56399;SDS011;42298;53.638;9.876;2023-04-02T08:33:23;3.80;;;1.33;;
56399;SDS011;42298;53.638;9.876;2023-04-02T08:35:49;5.93;;;1.93;;
56399;SDS011;42298;53.638;9.876;2023-04-02T08:38:15;6.37;;;1.77;;
56399;SDS011;42298;53.638;9.876;2023-04-02T08:40:42;3.10;;;1.60;;
56399;SDS011;42298;53.638;9.876;2023-04-02T08:46:21;4.47;;;1.70;;
56399;SDS011;42298;53.638;9.876;2023-04-02T08:48:53;4.90;;;1.40;;
56399;SDS011;42298;53.638;9.876;2023-04-02T08:51:23;3.83;;;1.53;;
56399;SDS011;42298;53.638;9.876;2023-04-02T08:53:52;4.77;;;1.90;;
56399;SDS011;42298;53.638;9.876;2023-04-02T08:56:26;4.53;;;1.33;;
56399;SDS011;42298;53.638;9.876;2023-04-02T08:59:08;6.43;;;2.07;;
56399;SDS011;42298;53.638;9.876;2023-04-02T09:04:25;7.00;;;1.83;;
56399;SDS011;42298;53.638;9.876;2023-04-02T09:06:52;2.97;;;1.40;;
56399;SDS011;42298;53.638;9.876;2023-04-02T09:09:20;5.13;;;1.30;;
56399;SDS011;42298;53.638;9.876;2023-04-02T09:11:54;3.93;;;1.43;;
56399;SDS011;42298;53.638;9.876;2023-04-02T09:17:16;4.47;;;1.30;;
56399;SDS011;42298;53.638;9.876;2023-04-02T09:19:44;4.37;;;1.53;;
56399;SDS011;42298;53.638;9.876;2023-04-02T09:22:20;4.10;;;1.33;;
56399;SDS011;42298;53.638;9.876;2023-04-02T09:24:51;3.70;;;1.40;;
56399;SDS011;42298;53.638;9.876;2023-04-02T09:27:22;5.90;;;1.33;;
56399;SDS011;42298;53.638;9.876;2023-04-02T09:29:50;4.43;;;1.60;;
56399;SDS011;42298;53.638;9.876;2023-04-02T09:35:08;7.53;;;1.43;;
56399;SDS011;42298;53.638;9.876;2023-04-02T09:37:38;3.43;;;1.20;;
56399;SDS011;42298;53.638;9.876;2023-04-02T09:40:38;6.80;;;1.50;;
56399;SDS011;42298;53.638;9.876;2023-04-02T09:43:17;2.27;;;1.27;;
56399;SDS011;42298;53.638;9.876;2023-04-02T09:48:33;4.67;;;1.57;;
56399;SDS011;42298;53.638;9.876;2023-04-02T09:51:08;4.10;;;1.30;;
56399;SDS011;42298;53.638;9.876;2023-04-02T09:53:38;2.20;;;1.03;;
56399;SDS011;42298;53.638;9.876;2023-04-02T09:56:20;3.47;;;1.30;;
56399;SDS011;42298;53.638;9.876;2023-04-02T10:10:03;4.30;;;1.40;;
56399;SDS011;42298;53.638;9.876;2023-04-02T10:12:44;3.60;;;1.40;;
56399;SDS011;42298;53.638;9.876;2023-04-02T10:15:37;5.77;;;1.63;;
56399;SDS011;42298;53.638;9.876;2023-04-02T10:18:13;5.27;;;1.70;;
56399;SDS011;42298;53.638;9.876;2023-04-02T10:20:45;3.67;;;1.17;;
56399;SDS011;42298;53.638;9.876;2023-04-02T10:23:16;5.43;;;1.20;;
56399;SDS011;42298;53.638;9.876;2023-04-02T10:25:59;4.17;;;1.30;;
56399;SDS011;42298;53.638;9.876;2023-04-02T10:28:40;3.63;;;1.30;;
56399;SDS011;42298;53.638;9.876;2023-04-02T10:31:36;2.87;;;1.20;;
56399;SDS011;42298;53.638;9.876;2023-04-02T10:34:23;2.80;;;1.30;;
56399;SDS011;42298;53.638;9.876;2023-04-02T10:37:06;2.50;;;1.30;;
56399;SDS011;42298;53.638;9.876;2023-04-02T10:39:54;2.37;;;1.40;;
56399;SDS011;42298;53.638;9.876;2023-04-02T10:47:59;8.00;;;1.80;;
56399;SDS011;42298;53.638;9.876;2023-04-02T10:53:13;3.97;;;1.40;;
56399;SDS011;42298;53.638;9.876;2023-04-02T10:55:42;3.90;;;1.43;;
56399;SDS011;42298;53.638;9.876;2023-04-02T10:58:23;4.47;;;1.63;;
56399;SDS011;42298;53.638;9.876;2023-04-02T11:00:52;2.73;;;1.43;;
56399;SDS011;42298;53.638;9.876;2023-04-02T11:03:30;5.33;;;1.70;;
56399;SDS011;42298;53.638;9.876;2023-04-02T11:06:16;3.23;;;1.40;;
56399;SDS011;42298;53.638;9.876;2023-04-02T11:08:50;3.63;;;1.47;;
56399;SDS011;42298;53.638;9.876;2023-04-02T11:11:26;2.07;;;1.63;;
56399;SDS011;42298;53.638;9.876;2023-04-02T11:14:00;6.53;;;1.83;;
56399;SDS011;42298;53.638;9.876;2023-04-02T11:16:29;3.13;;;1.40;;
56399;SDS011;42298;53.638;9.876;2023-04-02T11:21:51;3.73;;;1.30;;
56399;SDS011;42298;53.638;9.876;2023-04-02T11:24:38;3.23;;;1.50;;
56399;SDS011;42298;53.638;9.876;2023-04-02T11:29:45;2.07;;;1.10;;
56399;SDS011;42298;53.638;9.876;2023-04-02T11:32:13;4.00;;;1.40;;
56399;SDS011;42298;53.638;9.876;2023-04-02T11:40:05;3.97;;;1.80;;
56399;SDS011;42298;53.638;9.876;2023-04-02T11:42:51;4.83;;;1.63;;
56399;SDS011;42298;53.638;9.876;2023-04-02T11:50:35;4.40;;;2.03;;
56399;SDS011;42298;53.638;9.876;2023-04-02T11:55:34;3.83;;;1.43;;
56399;SDS011;42298;53.638;9.876;2023-04-02T11:58:04;4.87;;;1.63;;
56399;SDS011;42298;53.638;9.876;2023-04-02T12:03:36;4.07;;;1.43;;
56399;SDS011;42298;53.638;9.876;2023-04-02T12:06:32;4.03;;;1.37;;
56399;SDS011;42298;53.638;9.876;2023-04-02T12:11:43;5.60;;;1.17;;
56399;SDS011;42298;53.638;9.876;2023-04-02T12:16:55;1.63;;;1.10;;
56399;SDS011;42298;53.638;9.876;2023-04-02T12:19:21;2.47;;;1.20;;
56399;SDS011;42298;53.638;9.876;2023-04-02T12:21:48;3.13;;;1.20;;
56399;SDS011;42298;53.638;9.876;2023-04-02T12:24:20;2.37;;;1.20;;
56399;SDS011;42298;53.638;9.876;2023-04-02T12:26:48;2.43;;;0.90;;
56399;SDS011;42298;53.638;9.876;2023-04-02T12:29:30;2.93;;;1.10;;
56399;SDS011;42298;53.638;9.876;2023-04-02T12:31:57;3.60;;;1.10;;
56399;SDS011;42298;53.638;9.876;2023-04-02T12:34:25;2.53;;;1.20;;
56399;SDS011;42298;53.638;9.876;2023-04-02T12:36:53;4.00;;;1.40;;
56399;SDS011;42298;53.638;9.876;2023-04-02T12:39:21;2.20;;;1.10;;
56399;SDS011;42298;53.638;9.876;2023-04-02T12:41:46;6.10;;;1.30;;
56399;SDS011;42298;53.638;9.876;2023-04-02T12:44:13;1.67;;;1.20;;
56399;SDS011;42298;53.638;9.876;2023-04-02T12:46:40;2.00;;;1.10;;
56399;SDS011;42298;53.638;9.876;2023-04-02T12:49:24;2.47;;;1.10;;
56399;SDS011;42298;53.638;9.876;2023-04-02T12:52:00;0.80;;;0.80;;
56399;SDS011;42298;53.638;9.876;2023-04-02T12:54:46;1.30;;;0.90;;
56399;SDS011;42298;53.638;9.876;2023-04-02T12:59:49;2.80;;;1.00;;
56399;SDS011;42298;53.638;9.876;2023-04-02T13:02:20;1.67;;;1.17;;
56399;SDS011;42298;53.638;9.876;2023-04-02T13:04:57;2.50;;;1.20;;
56399;SDS011;42298;53.638;9.876;2023-04-02T13:07:28;2.53;;;1.17;;
56399;SDS011;42298;53.638;9.876;2023-04-02T13:09:58;2.40;;;1.17;;
56399;SDS011;42298;53.638;9.876;2023-04-02T13:12:35;2.53;;;1.10;;
56399;SDS011;42298;53.638;9.876;2023-04-02T13:15:21;2.43;;;1.23;;
56399;SDS011;42298;53.638;9.876;2023-04-02T13:20:37;1.40;;;1.00;;
56399;SDS011;42298;53.638;9.876;2023-04-02T13:23:28;4.10;;;1.20;;
56399;SDS011;42298;53.638;9.876;2023-04-02T13:25:55;2.20;;;1.23;;
56399;SDS011;42298;53.638;9.876;2023-04-02T13:28:26;3.27;;;1.20;;
56399;SDS011;42298;53.638;9.876;2023-04-02T13:30:52;0.90;;;0.90;;
56399;SDS011;42298;53.638;9.876;2023-04-02T13:33:17;1.90;;;1.00;;
56399;SDS011;42298;53.638;9.876;2023-04-02T13:35:44;1.97;;;1.20;;
56399;SDS011;42298;53.638;9.876;2023-04-02T13:38:10;1.53;;;1.03;;
56399;SDS011;42298;53.638;9.876;2023-04-02T13:40:35;4.23;;;1.10;;
56399;SDS011;42298;53.638;9.876;2023-04-02T13:43:04;3.33;;;1.30;;
56399;SDS011;42298;53.638;9.876;2023-04-02T13:45:39;1.30;;;1.20;;
56399;SDS011;42298;53.638;9.876;2023-04-02T13:48:08;2.57;;;1.23;;
56399;SDS011;42298;53.638;9.876;2023-04-02T13:50:38;1.50;;;1.30;;
56399;SDS011;42298;53.638;9.876;2023-04-02T13:53:05;2.60;;;1.20;;
56399;SDS011;42298;53.638;9.876;2023-04-02T13:55:34;2.50;;;1.20;;
56399;SDS011;42298;53.638;9.876;2023-04-02T13:58:03;2.57;;;1.10;;
56399;SDS011;42298;53.638;9.876;2023-04-02T14:00:29;3.53;;;1.60;;
56399;SDS011;42298;53.638;9.876;2023-04-02T14:03:00;0.90;;;0.90;;
56399;SDS011;42298;53.638;9.876;2023-04-02T14:05:58;1.20;;;0.90;;
56399;SDS011;42298;53.638;9.876;2023-04-02T14:16:33;3.93;;;1.70;;
56399;SDS011;42298;53.638;9.876;2023-04-02T14:19:11;1.33;;;0.97;;
56399;SDS011;42298;53.638;9.876;2023-04-02T14:35:41;3.23;;;1.30;;
56399;SDS011;42298;53.638;9.876;2023-04-02T14:40:47;3.43;;;1.20;;
56399;SDS011;42298;53.638;9.876;2023-04-02T14:43:18;4.43;;;1.20;;
56399;SDS011;42298;53.638;9.876;2023-04-02T14:51:19;3.07;;;1.30;;
56399;SDS011;42298;53.638;9.876;2023-04-02T14:54:20;4.00;;;1.57;;
56399;SDS011;42298;53.638;9.876;2023-04-02T14:56:56;3.93;;;1.63;;
56399;SDS011;42298;53.638;9.876;2023-04-02T14:59:30;4.03;;;1.30;;
56399;SDS011;42298;53.638;9.876;2023-04-02T15:02:35;6.20;;;1.67;;
56399;SDS011;42298;53.638;9.876;2023-04-02T15:05:06;3.37;;;1.50;;
56399;SDS011;42298;53.638;9.876;2023-04-02T15:07:40;4.17;;;1.70;;
56399;SDS011;42298;53.638;9.876;2023-04-02T15:12:43;3.90;;;1.50;;
56399;SDS011;42298;53.638;9.876;2023-04-02T15:17:35;6.07;;;1.53;;
56399;SDS011;42298;53.638;9.876;2023-04-02T15:20:07;4.67;;;1.33;;
56399;SDS011;42298;53.638;9.876;2023-04-02T15:22:41;2.27;;;1.40;;
56399;SDS011;42298;53.638;9.876;2023-04-02T15:28:01;3.60;;;1.43;;
56399;SDS011;42298;53.638;9.876;2023-04-02T15:30:47;6.93;;;2.03;;
56399;SDS011;42298;53.638;9.876;2023-04-02T15:39:02;3.93;;;1.60;;
56399;SDS011;42298;53.638;9.876;2023-04-02T15:44:54;3.07;;;1.40;;
56399;SDS011;42298;53.638;9.876;2023-04-02T15:50:10;3.87;;;1.50;;
56399;SDS011;42298;53.638;9.876;2023-04-02T15:52:59;3.13;;;1.30;;
56399;SDS011;42298;53.638;9.876;2023-04-02T16:10:02;4.13;;;1.50;;
56399;SDS011;42298;53.638;9.876;2023-04-02T16:12:31;3.03;;;1.20;;
56399;SDS011;42298;53.638;9.876;2023-04-02T16:15:03;2.83;;;1.47;;
56399;SDS011;42298;53.638;9.876;2023-04-02T16:17:36;1.97;;;1.10;;
56399;SDS011;42298;53.638;9.876;2023-04-02T16:20:22;4.67;;;1.43;;
56399;SDS011;42298;53.638;9.876;2023-04-02T16:23:04;4.97;;;1.93;;
56399;SDS011;42298;53.638;9.876;2023-04-02T16:28:28;3.60;;;1.60;;
56399;SDS011;42298;53.638;9.876;2023-04-02T16:31:09;2.87;;;1.50;;
56399;SDS011;42298;53.638;9.876;2023-04-02T16:50:27;5.87;;;1.73;;
56399;SDS011;42298;53.638;9.876;2023-04-02T16:59:01;5.83;;;2.17;;
56399;SDS011;42298;53.638;9.876;2023-04-02T17:04:44;3.60;;;1.60;;
56399;SDS011;42298;53.638;9.876;2023-04-02T17:12:55;4.80;;;1.40;;
56399;SDS011;42298;53.638;9.876;2023-04-02T17:15:48;4.97;;;1.70;;
56399;SDS011;42298;53.638;9.876;2023-04-02T17:18:48;3.60;;;1.47;;
56399;SDS011;42298;53.638;9.876;2023-04-02T17:21:32;6.13;;;1.90;;
56399;SDS011;42298;53.638;9.876;2023-04-02T17:24:01;3.57;;;1.63;;
56399;SDS011;42298;53.638;9.876;2023-04-02T17:26:41;3.17;;;1.40;;
56399;SDS011;42298;53.638;9.876;2023-04-02T17:29:14;6.20;;;1.90;;
56399;SDS011;42298;53.638;9.876;2023-04-02T17:31:45;8.20;;;1.80;;
56399;SDS011;42298;53.638;9.876;2023-04-02T17:34:11;5.53;;;2.00;;
56399;SDS011;42298;53.638;9.876;2023-04-02T17:36:57;5.77;;;1.73;;
56399;SDS011;42298;53.638;9.876;2023-04-02T17:47:22;8.20;;;2.13;;
56399;SDS011;42298;53.638;9.876;2023-04-02T17:49:56;6.03;;;1.97;;
56399;SDS011;42298;53.638;9.876;2023-04-02T17:55:32;4.33;;;2.00;;
56399;SDS011;42298;53.638;9.876;2023-04-02T18:01:11;4.27;;;2.10;;
56399;SDS011;42298;53.638;9.876;2023-04-02T18:09:02;6.80;;;1.90;;
56399;SDS011;42298;53.638;9.876;2023-04-02T18:11:49;7.90;;;2.20;;
56399;SDS011;42298;53.638;9.876;2023-04-02T18:16:57;8.50;;;2.57;;
56399;SDS011;42298;53.638;9.876;2023-04-02T18:19:38;4.70;;;2.37;;
56399;SDS011;42298;53.638;9.876;2023-04-02T18:22:21;6.13;;;2.47;;
56399;SDS011;42298;53.638;9.876;2023-04-02T18:25:03;5.40;;;1.93;;
56399;SDS011;42298;53.638;9.876;2023-04-02T18:27:44;8.57;;;2.40;;
56399;SDS011;42298;53.638;9.876;2023-04-02T18:30:26;8.37;;;2.23;;
56399;SDS011;42298;53.638;9.876;2023-04-02T18:35:58;7.83;;;2.20;;
56399;SDS011;42298;53.638;9.876;2023-04-02T18:38:38;3.83;;;2.07;;
56399;SDS011;42298;53.638;9.876;2023-04-02T18:44:08;6.80;;;2.77;;
56399;SDS011;42298;53.638;9.876;2023-04-02T18:46:59;5.67;;;2.23;;
56399;SDS011;42298;53.638;9.876;2023-04-02T18:49:36;9.87;;;3.13;;
56399;SDS011;42298;53.638;9.876;2023-04-02T18:52:11;6.07;;;2.00;;
56399;SDS011;42298;53.638;9.876;2023-04-02T18:57:27;8.20;;;3.00;;
56399;SDS011;42298;53.638;9.876;2023-04-02T19:00:04;8.30;;;2.77;;
56399;SDS011;42298;53.638;9.876;2023-04-02T19:02:46;6.00;;;2.23;;
56399;SDS011;42298;53.638;9.876;2023-04-02T19:11:18;6.13;;;2.00;;
56399;SDS011;42298;53.638;9.876;2023-04-02T19:13:53;7.33;;;2.10;;
56399;SDS011;42298;53.638;9.876;2023-04-02T19:18:59;3.87;;;2.00;;
56399;SDS011;42298;53.638;9.876;2023-04-02T19:22:00;7.33;;;2.30;;
56399;SDS011;42298;53.638;9.876;2023-04-02T19:24:54;6.03;;;2.47;;
56399;SDS011;42298;53.638;9.876;2023-04-02T19:30:34;8.13;;;2.43;;
56399;SDS011;42298;53.638;9.876;2023-04-02T19:36:00;7.93;;;2.30;;
56399;SDS011;42298;53.638;9.876;2023-04-02T19:41:30;6.27;;;2.20;;
56399;SDS011;42298;53.638;9.876;2023-04-02T19:44:08;8.93;;;2.23;;
56399;SDS011;42298;53.638;9.876;2023-04-02T19:46:37;6.73;;;2.50;;
56399;SDS011;42298;53.638;9.876;2023-04-02T19:51:47;7.13;;;2.37;;
56399;SDS011;42298;53.638;9.876;2023-04-02T19:54:14;7.97;;;2.20;;
56399;SDS011;42298;53.638;9.876;2023-04-02T19:56:40;8.00;;;2.33;;
56399;SDS011;42298;53.638;9.876;2023-04-02T19:59:07;9.13;;;3.13;;
56399;SDS011;42298;53.638;9.876;2023-04-02T20:01:33;6.10;;;2.33;;
56399;SDS011;42298;53.638;9.876;2023-04-02T20:03:58;8.80;;;2.37;;
56399;SDS011;42298;53.638;9.876;2023-04-02T20:06:24;10.03;;;2.63;;
56399;SDS011;42298;53.638;9.876;2023-04-02T20:08:49;7.53;;;2.60;;
56399;SDS011;42298;53.638;9.876;2023-04-02T20:11:15;5.63;;;2.37;;
56399;SDS011;42298;53.638;9.876;2023-04-02T20:13:40;5.67;;;2.40;;
56399;SDS011;42298;53.638;9.876;2023-04-02T20:16:06;6.23;;;2.83;;
56399;SDS011;42298;53.638;9.876;2023-04-02T20:18:32;8.27;;;2.93;;
56399;SDS011;42298;53.638;9.876;2023-04-02T20:21:05;6.83;;;2.37;;
56399;SDS011;42298;53.638;9.876;2023-04-02T20:23:40;5.47;;;2.63;;
56399;SDS011;42298;53.638;9.876;2023-04-02T20:26:06;7.47;;;2.90;;
56399;SDS011;42298;53.638;9.876;2023-04-02T20:28:32;8.43;;;2.80;;
56399;SDS011;42298;53.638;9.876;2023-04-02T20:31:08;6.73;;;2.40;;
56399;SDS011;42298;53.638;9.876;2023-04-02T20:33:36;9.80;;;2.70;;
56399;SDS011;42298;53.638;9.876;2023-04-02T20:36:03;8.73;;;2.77;;